This is the latest recevied weather packets stored in our database for station/object KY0TEQ-13. If no packets are shown the sender has not sent any weather packets the latest 10 day(s).
| Time | Temp. | Humidity | Pressure | Rain* | Wind** | Luminosity | Snow |
|---|---|---|---|---|---|---|---|
| 1787892126 | 18.33° C | 38% | 1311.7 hPa | 0 mm | - | 0 W/m² | - |
| 1787891821 | 17.78° C | 44% | 1311.9 hPa | 0 mm | - | 0 W/m² | - |
| 1787891517 | 17.78° C | 43% | 1311.7 hPa | 0 mm | - | 0 W/m² | - |
| 1787891216 | 15.56° C | 47% | 1311.7 hPa | 0 mm | - | 0 W/m² | - |
| 1787890915 | 16.11° C | 49% | 1311.7 hPa | 0 mm | - | 0 W/m² | - |
| 1787890610 | 17.78° C | 46% | 1311.4 hPa | 0 mm | - | 0 W/m² | - |
| 1787890309 | 18.33° C | 41% | 1311.6 hPa | 0 mm | - | 0 W/m² | - |
| 1787890006 | 18.33° C | 41% | 1311.6 hPa | 0 mm | - | 0 W/m² | - |
| 1787889702 | 18.89° C | 40% | 1311.7 hPa | 0 mm | - | 0 W/m² | - |
| 1787889402 | 18.89° C | 40% | 1311.6 hPa | 0 mm | - | 0 W/m² | - |
| 1787889100 | 18.33° C | 41% | 1311.4 hPa | 0 mm | - | 0 W/m² | - |
| 1787888796 | 17.78° C | 43% | 1311.4 hPa | 0 mm | - | 0 W/m² | - |
| 1787888492 | 18.33° C | 42% | 1311.6 hPa | 0 mm | - | 0 W/m² | - |
| 1787888191 | 18.89° C | 41% | 1311.6 hPa | 0 mm | - | 0 W/m² | - |
| 1787887887 | 18.33° C | 41% | 1311.4 hPa | 0 mm | - | 0 W/m² | - |
| 1787887582 | 18.89° C | 43% | 1311.3 hPa | 0 mm | - | 0 W/m² | - |
| 1787887278 | 18.33° C | 44% | 1311.1 hPa | 0 mm | - | 0 W/m² | - |
| 1787886973 | 19.44° C | 41% | 1311.1 hPa | 0 mm | - | 0 W/m² | - |
| 1787886672 | 18.89° C | 43% | 1311 hPa | 0 mm | - | 0 W/m² | - |
| 1787886368 | 17.78° C | 44% | 1310.7 hPa | 0 mm | - | 0 W/m² | - |
| 1787886063 | 17.22° C | 50% | 1310.7 hPa | 0 mm | - | 0 W/m² | - |
| 1787885761 | 17.78° C | 51% | 1310.7 hPa | 0 mm | - | 0 W/m² | - |
| 1787885461 | 16.67° C | 50% | 1310.6 hPa | 0 mm | - | 0 W/m² | - |
| 1787885155 | 18.33° C | 49% | 1310.5 hPa | 0 mm | - | 0 W/m² | - |
| 1787884849 | 18.89° C | 47% | 1310.5 hPa | 0 mm | - | 0 W/m² | - |
* Rain latest hour (hover to see other rain measurements)
** Current wind speed in m/s (hover to see current wind gust speed)